sensor_id;sensor_type;location;lat;lon;timestamp;pressure;altitude;pressure_sealevel;temperature;humidity
62791;BME280;48830;53.426;10.300;2022-07-18T00:01:45;102575.88;;;14.92;87.27
62791;BME280;48830;53.426;10.300;2022-07-18T00:04:10;102584.56;;;14.94;87.75
62791;BME280;48830;53.426;10.300;2022-07-18T00:06:36;102572.56;;;14.98;87.86
62791;BME280;48830;53.426;10.300;2022-07-18T00:09:02;102559.66;;;14.99;87.60
62791;BME280;48830;53.426;10.300;2022-07-18T00:11:28;102552.56;;;14.92;87.18
62791;BME280;48830;53.426;10.300;2022-07-18T00:13:53;102555.16;;;14.92;86.99
62791;BME280;48830;53.426;10.300;2022-07-18T00:16:19;102556.81;;;14.90;87.23
62791;BME280;48830;53.426;10.300;2022-07-18T00:18:45;102558.38;;;14.83;87.09
62791;BME280;48830;53.426;10.300;2022-07-18T00:21:10;102550.56;;;14.80;87.14
62791;BME280;48830;53.426;10.300;2022-07-18T00:23:36;102557.25;;;14.74;87.31
62791;BME280;48830;53.426;10.300;2022-07-18T00:26:02;102545.19;;;14.74;87.66
62791;BME280;48830;53.426;10.300;2022-07-18T00:28:27;102539.97;;;14.73;87.98
62791;BME280;48830;53.426;10.300;2022-07-18T00:30:53;102538.09;;;14.67;88.44
62791;BME280;48830;53.426;10.300;2022-07-18T00:33:18;102537.97;;;14.62;88.58
62791;BME280;48830;53.426;10.300;2022-07-18T00:35:44;102536.94;;;14.56;88.87
62791;BME280;48830;53.426;10.300;2022-07-18T00:38:09;102542.22;;;14.59;88.75
62791;BME280;48830;53.426;10.300;2022-07-18T00:40:35;102536.25;;;14.63;88.69
62791;BME280;48830;53.426;10.300;2022-07-18T00:43:01;102538.78;;;14.60;88.91
62791;BME280;48830;53.426;10.300;2022-07-18T00:45:26;102539.44;;;14.53;89.13
62791;BME280;48830;53.426;10.300;2022-07-18T00:47:52;102535.75;;;14.44;89.46
62791;BME280;48830;53.426;10.300;2022-07-18T00:50:22;102535.03;;;14.49;89.36
62791;BME280;48830;53.426;10.300;2022-07-18T00:52:48;102539.41;;;14.51;89.32
62791;BME280;48830;53.426;10.300;2022-07-18T00:55:15;102542.88;;;14.52;89.23
62791;BME280;48830;53.426;10.300;2022-07-18T00:57:41;102535.88;;;14.48;89.64
62791;BME280;48830;53.426;10.300;2022-07-18T01:00:10;102535.94;;;14.51;89.65
62791;BME280;48830;53.426;10.300;2022-07-18T01:02:54;102530.75;;;14.49;89.82
62791;BME280;48830;53.426;10.300;2022-07-18T01:05:20;102529.78;;;14.47;89.80
62791;BME280;48830;53.426;10.300;2022-07-18T01:07:45;102534.75;;;14.39;90.14
62791;BME280;48830;53.426;10.300;2022-07-18T01:10:11;102539.81;;;14.36;90.17
62791;BME280;48830;53.426;10.300;2022-07-18T01:12:37;102546.66;;;14.34;90.19
62791;BME280;48830;53.426;10.300;2022-07-18T01:15:04;102544.97;;;14.35;90.30
62791;BME280;48830;53.426;10.300;2022-07-18T01:17:30;102549.09;;;14.28;90.49
62791;BME280;48830;53.426;10.300;2022-07-18T01:19:55;102543.09;;;14.29;90.34
62791;BME280;48830;53.426;10.300;2022-07-18T01:22:21;102541.22;;;14.25;89.81
62791;BME280;48830;53.426;10.300;2022-07-18T01:24:47;102546.22;;;14.19;90.23
62791;BME280;48830;53.426;10.300;2022-07-18T01:27:17;102541.03;;;14.17;90.48
62791;BME280;48830;53.426;10.300;2022-07-18T01:29:44;102534.03;;;14.15;90.21
62791;BME280;48830;53.426;10.300;2022-07-18T01:32:10;102527.13;;;14.14;90.67
62791;BME280;48830;53.426;10.300;2022-07-18T01:34:36;102533.97;;;14.12;90.98
62791;BME280;48830;53.426;10.300;2022-07-18T01:37:03;102535.72;;;14.13;91.27
62791;BME280;48830;53.426;10.300;2022-07-18T01:39:29;102536.53;;;14.10;91.28
62791;BME280;48830;53.426;10.300;2022-07-18T01:42:00;102536.38;;;14.06;91.02
62791;BME280;48830;53.426;10.300;2022-07-18T01:44:27;102536.28;;;14.03;90.72
62791;BME280;48830;53.426;10.300;2022-07-18T01:46:53;102531.94;;;14.02;90.83
62791;BME280;48830;53.426;10.300;2022-07-18T01:49:19;102541.41;;;14.01;91.05
62791;BME280;48830;53.426;10.300;2022-07-18T01:51:49;102537.94;;;13.99;90.79
62791;BME280;48830;53.426;10.300;2022-07-18T01:54:15;102536.97;;;13.97;91.42
62791;BME280;48830;53.426;10.300;2022-07-18T01:56:40;102525.63;;;13.92;91.31
62791;BME280;48830;53.426;10.300;2022-07-18T01:59:06;102534.22;;;13.91;91.38
62791;BME280;48830;53.426;10.300;2022-07-18T02:01:31;102524.84;;;13.95;91.40
62791;BME280;48830;53.426;10.300;2022-07-18T02:03:57;102515.56;;;14.01;91.46
62791;BME280;48830;53.426;10.300;2022-07-18T02:06:22;102524.09;;;13.99;91.59
62791;BME280;48830;53.426;10.300;2022-07-18T02:08:48;102525.63;;;13.92;91.95
62791;BME280;48830;53.426;10.300;2022-07-18T02:11:13;102528.91;;;13.86;91.94
62791;BME280;48830;53.426;10.300;2022-07-18T02:13:39;102527.81;;;13.78;92.00
62791;BME280;48830;53.426;10.300;2022-07-18T02:16:05;102533.00;;;13.78;91.76
62791;BME280;48830;53.426;10.300;2022-07-18T02:18:30;102529.47;;;13.76;91.44
62791;BME280;48830;53.426;10.300;2022-07-18T02:20:59;102519.88;;;13.72;91.24
62791;BME280;48830;53.426;10.300;2022-07-18T02:23:24;102524.03;;;13.67;91.48
62791;BME280;48830;53.426;10.300;2022-07-18T02:25:50;102517.06;;;13.64;91.79
62791;BME280;48830;53.426;10.300;2022-07-18T02:28:15;102513.59;;;13.64;91.51
62791;BME280;48830;53.426;10.300;2022-07-18T02:30:41;102513.50;;;13.61;91.73
62791;BME280;48830;53.426;10.300;2022-07-18T02:33:06;102520.34;;;13.59;92.15
62791;BME280;48830;53.426;10.300;2022-07-18T02:35:31;102511.75;;;13.60;91.70
62791;BME280;48830;53.426;10.300;2022-07-18T02:37:57;102513.59;;;13.64;91.85
62791;BME280;48830;53.426;10.300;2022-07-18T02:40:22;102503.25;;;13.64;92.66
62791;BME280;48830;53.426;10.300;2022-07-18T02:42:48;102514.50;;;13.66;92.89
62791;BME280;48830;53.426;10.300;2022-07-18T02:45:14;102512.00;;;13.68;93.21
62791;BME280;48830;53.426;10.300;2022-07-18T02:47:40;102511.13;;;13.67;93.17
62791;BME280;48830;53.426;10.300;2022-07-18T02:50:06;102504.09;;;13.63;93.23
62791;BME280;48830;53.426;10.300;2022-07-18T02:52:31;102500.56;;;13.61;92.79
62791;BME280;48830;53.426;10.300;2022-07-18T02:54:57;102494.59;;;13.62;92.70
62791;BME280;48830;53.426;10.300;2022-07-18T02:57:22;102499.75;;;13.62;92.70
62791;BME280;48830;53.426;10.300;2022-07-18T02:59:48;102500.72;;;13.65;92.66
62791;BME280;48830;53.426;10.300;2022-07-18T03:02:14;102504.13;;;13.64;92.78
62791;BME280;48830;53.426;10.300;2022-07-18T03:04:39;102507.56;;;13.63;92.89
62791;BME280;48830;53.426;10.300;2022-07-18T03:07:05;102508.53;;;13.67;92.13
62791;BME280;48830;53.426;10.300;2022-07-18T03:09:30;102506.72;;;13.64;92.87
62791;BME280;48830;53.426;10.300;2022-07-18T03:11:56;102512.56;;;13.59;93.19
62791;BME280;48830;53.426;10.300;2022-07-18T03:14:22;102515.16;;;13.59;93.46
62791;BME280;48830;53.426;10.300;2022-07-18T03:16:48;102516.84;;;13.57;93.51
62791;BME280;48830;53.426;10.300;2022-07-18T03:19:13;102513.31;;;13.55;93.81
62791;BME280;48830;53.426;10.300;2022-07-18T03:21:39;102516.84;;;13.57;93.33
62791;BME280;48830;53.426;10.300;2022-07-18T03:24:05;102503.78;;;13.52;93.60
62791;BME280;48830;53.426;10.300;2022-07-18T03:26:30;102508.25;;;13.58;93.17
62791;BME280;48830;53.426;10.300;2022-07-18T03:28:56;102508.13;;;13.55;93.38
62791;BME280;48830;53.426;10.300;2022-07-18T03:31:21;102507.25;;;13.54;93.47
62791;BME280;48830;53.426;10.300;2022-07-18T03:33:47;102504.66;;;13.53;93.32
62791;BME280;48830;53.426;10.300;2022-07-18T03:36:12;102509.69;;;13.50;93.40
62791;BME280;48830;53.426;10.300;2022-07-18T03:38:38;102515.81;;;13.52;93.33
62791;BME280;48830;53.426;10.300;2022-07-18T03:41:09;102520.97;;;13.52;93.22
62791;BME280;48830;53.426;10.300;2022-07-18T03:43:36;102518.28;;;13.49;93.29
62791;BME280;48830;53.426;10.300;2022-07-18T03:46:02;102514.88;;;13.50;93.16
62791;BME280;48830;53.426;10.300;2022-07-18T03:48:28;102512.34;;;13.51;93.25
62791;BME280;48830;53.426;10.300;2022-07-18T03:50:53;102504.66;;;13.53;93.32
62791;BME280;48830;53.426;10.300;2022-07-18T03:53:19;102508.00;;;13.50;93.51
62791;BME280;48830;53.426;10.300;2022-07-18T03:55:44;102501.22;;;13.54;93.76
62791;BME280;48830;53.426;10.300;2022-07-18T03:58:10;102492.75;;;13.58;93.50
62791;BME280;48830;53.426;10.300;2022-07-18T04:00:35;102482.44;;;13.59;93.86
62791;BME280;48830;53.426;10.300;2022-07-18T04:03:01;102482.47;;;13.61;94.34
62791;BME280;48830;53.426;10.300;2022-07-18T04:05:26;102483.44;;;13.63;94.36
62791;BME280;48830;53.426;10.300;2022-07-18T04:07:52;102486.09;;;13.66;93.96
62791;BME280;48830;53.426;10.300;2022-07-18T04:10:17;102485.31;;;13.69;93.97
62791;BME280;48830;53.426;10.300;2022-07-18T04:12:47;102493.22;;;13.73;93.93
62791;BME280;48830;53.426;10.300;2022-07-18T04:15:14;102498.41;;;13.75;93.94
62791;BME280;48830;53.426;10.300;2022-07-18T04:17:40;102502.84;;;13.79;93.74
62791;BME280;48830;53.426;10.300;2022-07-18T04:20:06;102495.22;;;13.83;93.42
62791;BME280;48830;53.426;10.300;2022-07-18T04:22:31;102503.91;;;13.85;93.24
62791;BME280;48830;53.426;10.300;2022-07-18T04:24:57;102510.81;;;13.86;93.57
62791;BME280;48830;53.426;10.300;2022-07-18T04:27:22;102509.84;;;13.83;93.53
62791;BME280;48830;53.426;10.300;2022-07-18T04:29:47;102506.59;;;13.88;93.29
62791;BME280;48830;53.426;10.300;2022-07-18T04:32:13;102498.88;;;13.90;93.53
62791;BME280;48830;53.426;10.300;2022-07-18T04:34:38;102490.31;;;13.92;93.29
62791;BME280;48830;53.426;10.300;2022-07-18T04:37:04;102487.81;;;13.96;93.05
62791;BME280;48830;53.426;10.300;2022-07-18T04:39:29;102488.88;;;14.02;92.84
62791;BME280;48830;53.426;10.300;2022-07-18T04:41:55;102492.50;;;14.09;92.74
62791;BME280;48830;53.426;10.300;2022-07-18T04:44:21;102483.13;;;14.12;92.52
62791;BME280;48830;53.426;10.300;2022-07-18T04:46:46;102480.56;;;14.14;92.59
62791;BME280;48830;53.426;10.300;2022-07-18T04:49:12;102484.03;;;14.14;92.86
62791;BME280;48830;53.426;10.300;2022-07-18T04:51:37;102484.97;;;14.16;92.84
62791;BME280;48830;53.426;10.300;2022-07-18T04:54:03;102478.94;;;14.16;92.79
62791;BME280;48830;53.426;10.300;2022-07-18T04:56:28;102473.81;;;14.19;92.69
62791;BME280;48830;53.426;10.300;2022-07-18T04:58:54;102473.03;;;14.22;92.68
62791;BME280;48830;53.426;10.300;2022-07-18T05:01:19;102474.06;;;14.28;92.60
62791;BME280;48830;53.426;10.300;2022-07-18T05:03:45;102463.72;;;14.28;92.63
62791;BME280;48830;53.426;10.300;2022-07-18T05:06:10;102466.56;;;14.37;91.97
62791;BME280;48830;53.426;10.300;2022-07-18T05:08:35;102476.16;;;14.41;91.64
62791;BME280;48830;53.426;10.300;2022-07-18T05:11:01;102467.81;;;14.52;91.02
62791;BME280;48830;53.426;10.300;2022-07-18T05:13:26;102487.81;;;14.57;90.50
62791;BME280;48830;53.426;10.300;2022-07-18T05:15:52;102481.09;;;14.64;90.01
62791;BME280;48830;53.426;10.300;2022-07-18T05:18:17;102480.66;;;14.80;89.99
62791;BME280;48830;53.426;10.300;2022-07-18T05:20:43;102479.25;;;14.94;89.43
62791;BME280;48830;53.426;10.300;2022-07-18T05:23:08;102484.03;;;15.12;88.60
62791;BME280;48830;53.426;10.300;2022-07-18T05:25:35;102470.63;;;15.32;87.57
62791;BME280;48830;53.426;10.300;2022-07-18T05:28:00;102473.56;;;15.45;87.30
62791;BME280;48830;53.426;10.300;2022-07-18T05:30:26;102471.94;;;15.51;87.15
62791;BME280;48830;53.426;10.300;2022-07-18T05:32:51;102473.22;;;15.68;86.51
62791;BME280;48830;53.426;10.300;2022-07-18T05:35:17;102469.78;;;15.70;86.09
62791;BME280;48830;53.426;10.300;2022-07-18T05:37:43;102470.75;;;15.74;85.69
62791;BME280;48830;53.426;10.300;2022-07-18T05:40:11;102468.06;;;15.71;86.12
62791;BME280;48830;53.426;10.300;2022-07-18T05:42:37;102477.75;;;15.78;85.84
62791;BME280;48830;53.426;10.300;2022-07-18T05:45:03;102472.59;;;15.81;85.88
62791;BME280;48830;53.426;10.300;2022-07-18T05:47:29;102473.69;;;15.91;86.23
62791;BME280;48830;53.426;10.300;2022-07-18T05:49:55;102475.50;;;15.96;85.76
62791;BME280;48830;53.426;10.300;2022-07-18T05:52:20;102477.44;;;16.07;84.88
62791;BME280;48830;53.426;10.300;2022-07-18T05:54:46;102479.31;;;16.14;84.93
62791;BME280;48830;53.426;10.300;2022-07-18T05:57:11;102487.03;;;16.09;84.85
62791;BME280;48830;53.426;10.300;2022-07-18T05:59:36;102480.94;;;16.09;84.74
62791;BME280;48830;53.426;10.300;2022-07-18T06:02:02;102475.59;;;16.01;85.65
62791;BME280;48830;53.426;10.300;2022-07-18T06:04:27;102469.56;;;16.00;85.28
62791;BME280;48830;53.426;10.300;2022-07-18T06:06:53;102480.03;;;16.07;85.37
62791;BME280;48830;53.426;10.300;2022-07-18T06:09:18;102479.25;;;16.11;85.06
62791;BME280;48830;53.426;10.300;2022-07-18T06:11:44;102481.97;;;16.17;85.18
62791;BME280;48830;53.426;10.300;2022-07-18T06:14:09;102482.19;;;16.27;84.99
62791;BME280;48830;53.426;10.300;2022-07-18T06:16:35;102484.31;;;16.50;84.19
62791;BME280;48830;53.426;10.300;2022-07-18T06:19:02;102485.44;;;16.64;83.98
62791;BME280;48830;53.426;10.300;2022-07-18T06:21:28;102493.06;;;16.53;83.28
62791;BME280;48830;53.426;10.300;2022-07-18T06:23:53;102489.59;;;16.54;83.81
62791;BME280;48830;53.426;10.300;2022-07-18T06:26:19;102487.25;;;16.68;83.20
62791;BME280;48830;53.426;10.300;2022-07-18T06:28:44;102483.97;;;16.77;83.11
62791;BME280;48830;53.426;10.300;2022-07-18T06:31:10;102488.63;;;16.96;82.81
62791;BME280;48830;53.426;10.300;2022-07-18T06:33:37;102477.84;;;17.28;81.93
62791;BME280;48830;53.426;10.300;2022-07-18T06:36:02;102471.28;;;17.54;80.96
62791;BME280;48830;53.426;10.300;2022-07-18T06:38:28;102460.13;;;17.65;80.65
62791;BME280;48830;53.426;10.300;2022-07-18T06:40:53;102467.28;;;17.78;79.63
62791;BME280;48830;53.426;10.300;2022-07-18T06:43:19;102469.34;;;18.06;78.62
62791;BME280;48830;53.426;10.300;2022-07-18T06:45:46;102461.72;;;18.23;78.41
62791;BME280;48830;53.426;10.300;2022-07-18T06:48:13;102464.47;;;18.40;78.10
62791;BME280;48830;53.426;10.300;2022-07-18T06:50:39;102461.13;;;18.50;77.54
62791;BME280;48830;53.426;10.300;2022-07-18T06:53:04;102464.81;;;18.68;76.83
62791;BME280;48830;53.426;10.300;2022-07-18T06:55:30;102464.00;;;18.78;76.92
62791;BME280;48830;53.426;10.300;2022-07-18T06:57:55;102464.03;;;18.79;76.76
62791;BME280;48830;53.426;10.300;2022-07-18T07:00:21;102456.38;;;19.02;76.25
62791;BME280;48830;53.426;10.300;2022-07-18T07:02:48;102460.91;;;19.37;75.15
62791;BME280;48830;53.426;10.300;2022-07-18T07:05:15;102455.75;;;19.43;74.13
62791;BME280;48830;53.426;10.300;2022-07-18T07:07:42;102456.56;;;19.36;74.50
62791;BME280;48830;53.426;10.300;2022-07-18T07:10:08;102453.09;;;19.37;74.88
62791;BME280;48830;53.426;10.300;2022-07-18T07:12:44;102448.72;;;19.27;75.79
62791;BME280;48830;53.426;10.300;2022-07-18T07:15:11;102447.06;;;19.44;74.71
62791;BME280;48830;53.426;10.300;2022-07-18T07:17:38;102449.69;;;19.50;74.41
62791;BME280;48830;53.426;10.300;2022-07-18T07:20:05;102444.50;;;19.55;74.13
62791;BME280;48830;53.426;10.300;2022-07-18T07:22:31;102457.69;;;19.79;73.61
62791;BME280;48830;53.426;10.300;2022-07-18T07:24:57;102453.34;;;19.77;72.24
62791;BME280;48830;53.426;10.300;2022-07-18T07:27:23;102460.31;;;19.90;71.94
62791;BME280;48830;53.426;10.300;2022-07-18T07:29:50;102458.66;;;20.07;69.10
62791;BME280;48830;53.426;10.300;2022-07-18T07:32:15;102453.53;;;20.68;69.46
62791;BME280;48830;53.426;10.300;2022-07-18T07:34:41;102442.16;;;21.15;68.21
62791;BME280;48830;53.426;10.300;2022-07-18T07:37:07;102437.75;;;21.42;65.96
62791;BME280;48830;53.426;10.300;2022-07-18T07:39:33;102434.19;;;21.64;65.66
62791;BME280;48830;53.426;10.300;2022-07-18T07:41:58;102441.97;;;21.73;63.64
62791;BME280;48830;53.426;10.300;2022-07-18T07:44:24;102441.91;;;21.89;62.38
62791;BME280;48830;53.426;10.300;2022-07-18T07:46:49;102433.94;;;22.06;61.04
62791;BME280;48830;53.426;10.300;2022-07-18T07:49:16;102439.88;;;22.37;61.25
62791;BME280;48830;53.426;10.300;2022-07-18T07:51:41;102438.22;;;22.28;61.76
62791;BME280;48830;53.426;10.300;2022-07-18T07:54:06;102447.03;;;22.13;59.76
62791;BME280;48830;53.426;10.300;2022-07-18T07:56:32;102438.06;;;22.49;60.13
62791;BME280;48830;53.426;10.300;2022-07-18T07:58:57;102440.66;;;22.51;57.76
62791;BME280;48830;53.426;10.300;2022-07-18T08:01:23;102431.75;;;22.70;56.99
62791;BME280;48830;53.426;10.300;2022-07-18T08:03:48;102427.91;;;23.10;56.19
62791;BME280;48830;53.426;10.300;2022-07-18T08:06:15;102420.19;;;22.96;54.76
62791;BME280;48830;53.426;10.300;2022-07-18T08:08:40;102432.50;;;22.82;55.07
62791;BME280;48830;53.426;10.300;2022-07-18T08:11:06;102431.00;;;22.58;55.64
62791;BME280;48830;53.426;10.300;2022-07-18T08:13:32;102426.41;;;22.83;55.54
62791;BME280;48830;53.426;10.300;2022-07-18T08:15:57;102413.94;;;23.06;54.70
62791;BME280;48830;53.426;10.300;2022-07-18T08:18:22;102409.31;;;23.29;54.63
62791;BME280;48830;53.426;10.300;2022-07-18T08:20:48;102411.38;;;23.75;53.29
62791;BME280;48830;53.426;10.300;2022-07-18T08:23:13;102402.44;;;23.89;53.23
62791;BME280;48830;53.426;10.300;2022-07-18T08:25:40;102389.59;;;24.27;53.12
62791;BME280;48830;53.426;10.300;2022-07-18T08:28:07;102384.09;;;23.87;52.20
62791;BME280;48830;53.426;10.300;2022-07-18T08:30:33;102390.25;;;23.85;53.06
62791;BME280;48830;53.426;10.300;2022-07-18T08:33:00;102395.75;;;23.66;52.76
62791;BME280;48830;53.426;10.300;2022-07-18T08:35:30;102390.94;;;23.97;52.09
62791;BME280;48830;53.426;10.300;2022-07-18T08:37:57;102394.91;;;24.24;51.10
62791;BME280;48830;53.426;10.300;2022-07-18T08:40:22;102391.34;;;24.28;49.33
62791;BME280;48830;53.426;10.300;2022-07-18T08:42:55;102396.78;;;24.15;49.92
62791;BME280;48830;53.426;10.300;2022-07-18T08:45:22;102387.47;;;24.51;49.78
62791;BME280;48830;53.426;10.300;2022-07-18T08:47:48;102389.75;;;24.69;49.57
62791;BME280;48830;53.426;10.300;2022-07-18T08:50:14;102388.59;;;24.85;48.49
62791;BME280;48830;53.426;10.300;2022-07-18T08:52:40;102386.13;;;24.78;48.21
62791;BME280;48830;53.426;10.300;2022-07-18T08:55:07;102384.97;;;24.93;47.74
62791;BME280;48830;53.426;10.300;2022-07-18T08:57:33;102381.25;;;25.03;48.96
62791;BME280;48830;53.426;10.300;2022-07-18T08:59:58;102389.66;;;24.77;49.12
62791;BME280;48830;53.426;10.300;2022-07-18T09:02:27;102382.47;;;24.86;47.86
62791;BME280;48830;53.426;10.300;2022-07-18T09:04:53;102377.00;;;24.96;46.81
62791;BME280;48830;53.426;10.300;2022-07-18T09:07:30;102370.06;;;25.36;47.16
62791;BME280;48830;53.426;10.300;2022-07-18T09:10:00;102362.81;;;25.04;45.88
62791;BME280;48830;53.426;10.300;2022-07-18T09:12:28;102360.59;;;25.28;46.72
62791;BME280;48830;53.426;10.300;2022-07-18T09:14:56;102351.56;;;25.41;47.39
62791;BME280;48830;53.426;10.300;2022-07-18T09:17:27;102354.13;;;25.43;47.30
62791;BME280;48830;53.426;10.300;2022-07-18T09:20:10;102353.00;;;25.93;47.36
62791;BME280;48830;53.426;10.300;2022-07-18T09:22:39;102347.47;;;26.04;46.33
62791;BME280;48830;53.426;10.300;2022-07-18T09:25:12;102350.31;;;25.96;45.78
62791;BME280;48830;53.426;10.300;2022-07-18T09:27:42;102349.13;;;26.08;46.70
62791;BME280;48830;53.426;10.300;2022-07-18T09:32:34;102345.22;;;26.24;45.82
62791;BME280;48830;53.426;10.300;2022-07-18T09:35:14;102336.31;;;26.62;46.08
62791;BME280;48830;53.426;10.300;2022-07-18T09:37:58;102340.38;;;26.74;45.94
62791;BME280;48830;53.426;10.300;2022-07-18T09:40:29;102340.56;;;26.68;45.50
62791;BME280;48830;53.426;10.300;2022-07-18T09:42:58;102334.84;;;27.16;45.72
62791;BME280;48830;53.426;10.300;2022-07-18T09:45:26;102336.25;;;27.28;44.71
62791;BME280;48830;53.426;10.300;2022-07-18T09:48:00;102346.81;;;27.28;45.27
62791;BME280;48830;53.426;10.300;2022-07-18T09:50:43;102347.94;;;27.48;44.25
62791;BME280;48830;53.426;10.300;2022-07-18T09:55:55;102352.94;;;27.28;44.06
62791;BME280;48830;53.426;10.300;2022-07-18T09:58:29;102351.81;;;27.66;44.58
62791;BME280;48830;53.426;10.300;2022-07-18T10:00:56;102352.44;;;27.75;44.31
62791;BME280;48830;53.426;10.300;2022-07-18T10:03:23;102359.13;;;28.13;43.74
62791;BME280;48830;53.426;10.300;2022-07-18T10:05:50;102355.69;;;28.11;43.61
62791;BME280;48830;53.426;10.300;2022-07-18T10:08:18;102347.16;;;28.28;43.83
62791;BME280;48830;53.426;10.300;2022-07-18T10:10:45;102353.78;;;28.41;42.34
62791;BME280;48830;53.426;10.300;2022-07-18T10:13:12;102355.69;;;28.87;43.14
62791;BME280;48830;53.426;10.300;2022-07-18T10:15:40;102361.94;;;29.10;42.75
62791;BME280;48830;53.426;10.300;2022-07-18T10:18:08;102366.47;;;29.29;42.15
62791;BME280;48830;53.426;10.300;2022-07-18T10:23:27;102374.50;;;29.28;42.30
62791;BME280;48830;53.426;10.300;2022-07-18T10:26:17;102375.78;;;29.16;41.45
62791;BME280;48830;53.426;10.300;2022-07-18T10:33:50;102372.19;;;28.95;42.80
62791;BME280;48830;53.426;10.300;2022-07-18T10:36:17;102364.72;;;29.07;42.73
62791;BME280;48830;53.426;10.300;2022-07-18T10:50:00;102356.25;;;29.42;40.42
62791;BME280;48830;53.426;10.300;2022-07-18T10:57:32;102343.50;;;29.53;38.75
62791;BME280;48830;53.426;10.300;2022-07-18T11:00:01;102317.38;;;29.66;39.88
62791;BME280;48830;53.426;10.300;2022-07-18T11:02:35;102315.59;;;29.43;39.27
62791;BME280;48830;53.426;10.300;2022-07-18T11:05:00;102323.59;;;30.07;39.85
62791;BME280;48830;53.426;10.300;2022-07-18T11:07:26;102330.41;;;30.15;39.35
62791;BME280;48830;53.426;10.300;2022-07-18T11:09:52;102321.50;;;30.56;39.27
62791;BME280;48830;53.426;10.300;2022-07-18T11:12:24;102321.16;;;29.81;39.24
62791;BME280;48830;53.426;10.300;2022-07-18T11:15:06;102313.06;;;30.67;39.27
62791;BME280;48830;53.426;10.300;2022-07-18T11:17:54;102310.25;;;31.09;38.32
62791;BME280;48830;53.426;10.300;2022-07-18T11:22:52;102301.50;;;31.45;38.86
62791;BME280;48830;53.426;10.300;2022-07-18T11:25:17;102303.56;;;31.20;38.39
62791;BME280;48830;53.426;10.300;2022-07-18T11:27:44;102300.22;;;31.16;39.20
62791;BME280;48830;53.426;10.300;2022-07-18T11:30:15;102291.53;;;30.54;37.76
62791;BME280;48830;53.426;10.300;2022-07-18T11:32:41;102287.66;;;30.00;38.41
62791;BME280;48830;53.426;10.300;2022-07-18T11:35:07;102285.13;;;29.97;38.45
62791;BME280;48830;53.426;10.300;2022-07-18T11:37:35;102286.47;;;30.07;38.48
62791;BME280;48830;53.426;10.300;2022-07-18T11:40:08;102285.72;;;30.26;39.89
62791;BME280;48830;53.426;10.300;2022-07-18T11:42:37;102282.75;;;29.91;40.58
62791;BME280;48830;53.426;10.300;2022-07-18T11:45:05;102276.41;;;29.51;40.30
62791;BME280;48830;53.426;10.300;2022-07-18T11:47:30;102287.19;;;28.78;40.94
62791;BME280;48830;53.426;10.300;2022-07-18T11:49:56;102282.19;;;28.47;41.60
62791;BME280;48830;53.426;10.300;2022-07-18T11:52:21;102276.66;;;28.53;41.13
62791;BME280;48830;53.426;10.300;2022-07-18T11:54:47;102264.88;;;29.09;39.52
62791;BME280;48830;53.426;10.300;2022-07-18T11:57:12;102270.53;;;29.21;40.36
62791;BME280;48830;53.426;10.300;2022-07-18T11:59:40;102273.84;;;29.05;40.29
62791;BME280;48830;53.426;10.300;2022-07-18T12:02:07;102259.78;;;29.26;38.52
62791;BME280;48830;53.426;10.300;2022-07-18T12:04:33;102270.44;;;29.46;39.44
62791;BME280;48830;53.426;10.300;2022-07-18T12:07:15;102256.94;;;29.52;38.99
62791;BME280;48830;53.426;10.300;2022-07-18T12:09:42;102262.75;;;29.40;39.42
62791;BME280;48830;53.426;10.300;2022-07-18T12:12:09;102259.44;;;29.57;39.74
62791;BME280;48830;53.426;10.300;2022-07-18T12:14:35;102245.84;;;29.65;39.01
62791;BME280;48830;53.426;10.300;2022-07-18T12:17:00;102248.91;;;29.56;38.79
62791;BME280;48830;53.426;10.300;2022-07-18T12:24:35;102235.06;;;30.12;37.48
62791;BME280;48830;53.426;10.300;2022-07-18T12:30:18;102223.25;;;29.98;38.17
62791;BME280;48830;53.426;10.300;2022-07-18T12:32:54;102211.06;;;30.15;37.92
62791;BME280;48830;53.426;10.300;2022-07-18T12:35:28;102206.41;;;29.99;38.61
62791;BME280;48830;53.426;10.300;2022-07-18T12:40:21;102197.53;;;31.15;38.54
62791;BME280;48830;53.426;10.300;2022-07-18T12:42:46;102206.03;;;31.04;36.73
62791;BME280;48830;53.426;10.300;2022-07-18T12:45:13;102203.78;;;31.50;37.54
62791;BME280;48830;53.426;10.300;2022-07-18T12:47:39;102209.56;;;31.41;36.43
62791;BME280;48830;53.426;10.300;2022-07-18T12:50:05;102203.34;;;30.67;36.80
62791;BME280;48830;53.426;10.300;2022-07-18T12:52:32;102201.66;;;31.03;36.87
62791;BME280;48830;53.426;10.300;2022-07-18T12:54:57;102202.44;;;30.68;37.97
62791;BME280;48830;53.426;10.300;2022-07-18T12:57:23;102210.03;;;30.56;37.22
62791;BME280;48830;53.426;10.300;2022-07-18T12:59:48;102195.50;;;31.39;35.93
62791;BME280;48830;53.426;10.300;2022-07-18T13:02:14;102190.66;;;31.47;36.39
62791;BME280;48830;53.426;10.300;2022-07-18T13:04:40;102200.66;;;30.87;37.26
62791;BME280;48830;53.426;10.300;2022-07-18T13:07:06;102203.19;;;30.71;36.90
62791;BME280;48830;53.426;10.300;2022-07-18T13:09:32;102184.97;;;31.19;35.83
62791;BME280;48830;53.426;10.300;2022-07-18T13:12:01;102192.22;;;31.69;36.13
62791;BME280;48830;53.426;10.300;2022-07-18T13:14:27;102194.28;;;31.98;36.02
62791;BME280;48830;53.426;10.300;2022-07-18T13:16:53;102184.06;;;32.06;35.96
62791;BME280;48830;53.426;10.300;2022-07-18T13:19:20;102185.47;;;31.79;35.17
62791;BME280;48830;53.426;10.300;2022-07-18T13:21:46;102177.13;;;31.16;35.45